Time;durP1;ratioP1;P1;durP2;ratioP2;P2;SDS_P1;SDS_P2;PMS_P1;PMS_P2;Temp;Humidity;BMP_temperature;BMP_pressure;BME280_temperature;BME280_humidity;BME280_pressure;Samples;Min_cycle;Max_cycle;Signal;HPM_P1;HPM_P2
2022/04/18 00:00:50;;;;;;;17.25;12.20;;;5.80;99.90;;;;;;5027667;28;20434;-89
2022/04/18 00:03:16;;;;;;;15.82;12.48;;;5.70;99.90;;;;;;5025995;28;20452;-89
2022/04/18 00:05:41;;;;;;;16.25;12.27;;;5.70;99.90;;;;;;5043272;28;20041;-89
2022/04/18 00:08:13;;;;;;;19.73;13.07;;;5.70;99.90;;;;;;5025584;28;20047;-89
2022/04/18 00:10:39;;;;;;;17.30;12.88;;;5.60;99.90;;;;;;5023103;28;20211;-89
2022/04/18 00:13:04;;;;;;;17.77;12.77;;;5.60;99.90;;;;;;5035906;28;20045;-88
2022/04/18 00:15:30;;;;;;;21.38;12.88;;;5.50;99.90;;;;;;5024840;28;20045;-90
2022/04/18 00:17:56;;;;;;;17.65;12.73;;;5.60;99.90;;;;;;5027025;28;20033;-90
2022/04/18 00:20:23;;;;;;;19.35;13.18;;;5.60;99.90;;;;;;5027424;28;20420;-90
2022/04/18 00:22:49;;;;;;;19.13;13.50;;;5.60;99.90;;;;;;5024124;28;20423;-89
2022/04/18 00:25:15;;;;;;;20.80;13.30;;;5.50;99.90;;;;;;5024035;28;20199;-89
2022/04/18 00:27:40;;;;;;;16.85;12.68;;;5.60;99.90;;;;;;5025282;28;20090;-89
2022/04/18 00:30:06;;;;;;;18.15;13.07;;;5.40;99.90;;;;;;5023784;28;20076;-89
2022/04/18 00:32:34;;;;;;;18.02;12.40;;;5.40;99.90;;;;;;5027356;28;20410;-88
2022/04/18 00:35:02;;;;;;;17.58;12.27;;;5.30;99.90;;;;;;5056644;28;20080;-90
2022/04/18 00:37:32;;;;;;;16.23;11.60;;;5.30;99.90;;;;;;5025163;28;20036;-89
2022/04/18 00:39:57;;;;;;;16.15;12.45;;;5.30;99.90;;;;;;5026077;28;20514;-89
2022/04/18 00:42:23;;;;;;;19.15;13.52;;;5.20;99.90;;;;;;5026499;28;20668;-89
2022/04/18 00:44:49;;;;;;;16.70;12.75;;;5.20;99.90;;;;;;5018843;28;20119;-88
2022/04/18 00:47:14;;;;;;;17.60;13.38;;;5.10;99.90;;;;;;5027361;28;20048;-89
2022/04/18 00:49:40;;;;;;;19.17;14.00;;;5.10;99.90;;;;;;5028548;28;20064;-89
2022/04/18 00:52:12;;;;;;;18.05;12.70;;;5.00;99.90;;;;;;5018247;28;20041;-88
2022/04/18 00:54:39;;;;;;;17.20;12.02;;;5.00;99.90;;;;;;5023237;28;20032;-89
2022/04/18 00:57:05;;;;;;;18.02;13.45;;;5.00;99.90;;;;;;5024171;28;20037;-88
2022/04/18 00:59:32;;;;;;;17.65;12.85;;;5.00;99.90;;;;;;5021701;28;20039;-89
2022/04/18 01:01:57;;;;;;;16.90;13.52;;;4.90;99.90;;;;;;5023303;28;20047;-89
2022/04/18 01:04:26;;;;;;;15.93;13.15;;;5.00;99.90;;;;;;5041770;28;20041;-90
2022/04/18 01:06:52;;;;;;;18.80;13.25;;;5.00;99.90;;;;;;5021586;28;20536;-89
2022/04/18 01:09:19;;;;;;;18.70;13.35;;;4.90;99.90;;;;;;5021753;28;20068;-89
2022/04/18 01:11:44;;;;;;;18.17;14.23;;;4.90;99.90;;;;;;5023967;28;20429;-90
2022/04/18 01:14:15;;;;;;;18.88;13.23;;;4.80;99.90;;;;;;5024536;28;20139;-89
2022/04/18 01:16:42;;;;;;;18.23;13.50;;;4.80;99.90;;;;;;5014990;28;20141;-88
2022/04/18 01:19:09;;;;;;;19.70;13.52;;;4.80;99.90;;;;;;5021181;28;20363;-89
2022/04/18 01:21:35;;;;;;;19.48;13.80;;;4.80;99.90;;;;;;5040173;28;20048;-89
2022/04/18 01:28:58;;;;;;;17.23;13.55;;;4.80;99.90;;;;;;5021890;28;20047;-90
2022/04/18 01:29:34;;;;;;;18.98;14.00;;;4.80;99.90;;;;;;5041097;28;20527;-89
2022/04/18 01:32:00;;;;;;;18.27;13.55;;;4.80;99.90;;;;;;5021029;28;20036;-89
2022/04/18 01:34:25;;;;;;;20.42;13.73;;;4.80;99.90;;;;;;5039258;28;20120;-89
2022/04/18 01:36:51;;;;;;;18.10;13.45;;;4.90;99.90;;;;;;5021888;28;20033;-89
2022/04/18 01:39:17;;;;;;;17.42;13.10;;;4.90;99.90;;;;;;5024620;28;20075;-89
2022/04/18 01:41:46;;;;;;;19.42;14.55;;;4.90;99.90;;;;;;5029032;28;20466;-88
2022/04/18 01:44:12;;;;;;;18.50;14.15;;;4.90;99.90;;;;;;5026018;28;21330;-89
2022/04/18 01:46:38;;;;;;;20.02;14.25;;;4.90;99.90;;;;;;5027016;28;20565;-88
2022/04/18 01:49:03;;;;;;;19.70;14.23;;;4.80;99.90;;;;;;5032603;28;20380;-88
2022/04/18 01:51:29;;;;;;;20.67;14.48;;;4.80;99.90;;;;;;5026857;28;20423;-89
2022/04/18 01:53:55;;;;;;;19.33;13.90;;;4.80;99.90;;;;;;5029000;28;20036;-89
2022/04/18 01:56:21;;;;;;;16.85;13.77;;;4.70;99.90;;;;;;5035752;28;20171;-90
2022/04/18 01:58:49;;;;;;;18.88;14.38;;;4.70;99.90;;;;;;5029400;28;20039;-89
2022/04/18 02:01:15;;;;;;;23.17;13.77;;;4.70;99.90;;;;;;5028473;28;20281;-89
2022/04/18 02:03:44;;;;;;;19.60;14.75;;;4.70;99.90;;;;;;5046351;28;20043;-89
2022/04/18 02:06:11;;;;;;;22.90;13.88;;;4.60;99.90;;;;;;5032277;28;20717;-89
2022/04/18 02:08:36;;;;;;;19.10;14.00;;;4.60;99.90;;;;;;5028576;28;20036;-88
2022/04/18 02:11:05;;;;;;;19.00;14.77;;;4.60;99.90;;;;;;5029084;28;20044;-89
2022/04/18 02:13:30;;;;;;;19.08;14.38;;;4.50;99.90;;;;;;5033900;28;20067;-90
2022/04/18 02:15:57;;;;;;;19.70;15.00;;;4.50;99.90;;;;;;5029224;28;20052;-90
2022/04/18 02:18:23;;;;;;;20.45;14.43;;;4.50;99.90;;;;;;5027641;28;20452;-90
2022/04/18 02:20:49;;;;;;;20.75;14.32;;;4.50;99.90;;;;;;5021748;28;20863;-89
2022/04/18 02:23:15;;;;;;;28.17;14.10;;;4.50;99.90;;;;;;5026776;28;20076;-89
2022/04/18 02:25:41;;;;;;;19.35;14.50;;;4.50;99.90;;;;;;5046878;28;20056;-89
2022/04/18 02:28:10;;;;;;;22.45;13.77;;;4.50;99.90;;;;;;5029524;28;20040;-89
2022/04/18 02:30:35;;;;;;;18.70;14.57;;;4.50;99.90;;;;;;5028347;28;20059;-88
2022/04/18 02:33:01;;;;;;;20.73;15.20;;;4.50;99.90;;;;;;5047212;28;20135;-90
2022/04/18 02:35:27;;;;;;;19.73;14.45;;;4.40;99.90;;;;;;5058042;28;20341;-90
2022/04/18 02:37:53;;;;;;;19.92;14.32;;;4.40;99.90;;;;;;5027493;28;20031;-89
2022/04/18 02:40:21;;;;;;;19.20;14.27;;;4.40;99.90;;;;;;5029674;28;20041;-90
2022/04/18 02:42:47;;;;;;;20.88;14.25;;;4.40;99.90;;;;;;5049224;28;20047;-88
2022/04/18 02:45:14;;;;;;;20.73;15.02;;;4.30;99.90;;;;;;5033053;28;20047;-89
2022/04/18 02:47:40;;;;;;;19.73;14.48;;;4.30;99.90;;;;;;5046494;28;20183;-89
2022/04/18 02:50:07;;;;;;;20.50;14.45;;;4.30;99.90;;;;;;5044754;28;20127;-89
2022/04/18 02:52:33;;;;;;;23.98;15.68;;;4.30;99.90;;;;;;5028241;28;20529;-89
2022/04/18 02:54:59;;;;;;;19.70;14.85;;;4.30;99.90;;;;;;5029070;28;20163;-89
2022/04/18 02:57:25;;;;;;;19.35;14.45;;;4.20;99.90;;;;;;5019448;28;20059;-90
2022/04/18 02:59:54;;;;;;;19.27;13.65;;;4.20;99.90;;;;;;5023108;28;20091;-90
2022/04/18 03:02:19;;;;;;;20.27;14.65;;;4.20;99.90;;;;;;5021641;28;20047;-89
2022/04/18 03:04:45;;;;;;;19.75;14.45;;;4.20;99.90;;;;;;5030000;28;20036;-90
2022/04/18 03:07:10;;;;;;;20.40;14.05;;;4.20;99.90;;;;;;5031907;28;20494;-88
2022/04/18 03:09:36;;;;;;;18.65;14.05;;;4.20;99.90;;;;;;5025386;28;20028;-89
2022/04/18 03:12:02;;;;;;;18.88;14.20;;;4.30;99.90;;;;;;5041126;28;20151;-89
2022/04/18 03:14:29;;;;;;;20.25;14.07;;;4.30;99.90;;;;;;5044264;28;20059;-89
2022/04/18 03:16:58;;;;;;;20.40;15.00;;;4.30;99.90;;;;;;5018935;28;20041;-88
2022/04/18 03:19:24;;;;;;;19.55;14.18;;;4.20;99.90;;;;;;5047111;28;20336;-89
2022/04/18 03:21:50;;;;;;;18.98;14.20;;;4.20;99.90;;;;;;5043161;28;20045;-89
2022/04/18 03:24:16;;;;;;;17.17;13.35;;;4.20;99.90;;;;;;5050211;28;20048;-89
2022/04/18 03:26:42;;;;;;;20.25;14.65;;;4.10;99.90;;;;;;5044674;28;20062;-89
2022/04/18 03:29:07;;;;;;;22.10;14.50;;;4.20;99.90;;;;;;5042637;28;20044;-89
2022/04/18 03:31:33;;;;;;;19.35;13.48;;;4.10;99.90;;;;;;5029064;28;20051;-90
2022/04/18 03:34:02;;;;;;;18.75;13.55;;;4.10;99.90;;;;;;5032135;28;20036;-89
2022/04/18 03:41:56;;;;;;;19.98;13.80;;;4.10;99.90;;;;;;5043955;28;20041;-89
2022/04/18 03:44:22;;;;;;;19.02;13.57;;;4.10;99.90;;;;;;5033681;28;20032;-88
2022/04/18 03:46:48;;;;;;;19.85;14.02;;;4.10;99.90;;;;;;5027448;28;20040;-89
2022/04/18 03:49:13;;;;;;;21.60;14.35;;;4.10;99.90;;;;;;5028614;28;20436;-90
2022/04/18 03:51:39;;;;;;;18.08;13.70;;;4.10;99.90;;;;;;5030202;28;20415;-89
2022/04/18 03:54:05;;;;;;;20.58;14.07;;;4.10;99.90;;;;;;5043416;28;20056;-90
2022/04/18 03:56:32;;;;;;;21.00;14.43;;;4.00;99.90;;;;;;5034036;28;20068;-89
2022/04/18 03:58:57;;;;;;;20.83;13.85;;;4.00;99.90;;;;;;5037834;28;20047;-89
2022/04/18 04:01:23;;;;;;;16.27;13.10;;;4.00;99.90;;;;;;5022235;28;20036;-89
2022/04/18 04:03:49;;;;;;;18.95;14.13;;;4.00;99.90;;;;;;5031991;28;20128;-90
2022/04/18 04:06:18;;;;;;;17.63;13.23;;;3.90;99.90;;;;;;5025453;28;20135;-89
2022/04/18 04:08:44;;;;;;;18.10;13.20;;;3.90;99.90;;;;;;5027634;28;20078;-89
2022/04/18 04:11:11;;;;;;;19.15;14.13;;;3.90;99.90;;;;;;5033925;28;20036;-89
2022/04/18 04:13:37;;;;;;;17.77;12.95;;;4.00;99.90;;;;;;5025895;28;20053;-89
2022/04/18 04:16:03;;;;;;;18.55;13.32;;;4.00;99.90;;;;;;5017830;28;20083;-90
2022/04/18 04:18:29;;;;;;;19.90;13.93;;;4.00;99.90;;;;;;5028285;28;20503;-89
2022/04/18 04:20:57;;;;;;;15.65;13.25;;;4.00;99.90;;;;;;5043448;28;20742;-89
2022/04/18 04:23:23;;;;;;;21.95;13.68;;;4.00;99.90;;;;;;5031366;28;20276;-88
2022/04/18 04:25:49;;;;;;;21.08;13.73;;;4.00;99.90;;;;;;5029940;28;20046;-89
2022/04/18 04:28:14;;;;;;;18.40;13.18;;;4.00;99.90;;;;;;5046319;28;20052;-89
2022/04/18 04:30:41;;;;;;;18.88;13.52;;;4.00;99.90;;;;;;5031817;28;20379;-88
2022/04/18 04:33:06;;;;;;;17.40;13.50;;;4.00;99.90;;;;;;5029078;28;20048;-90
2022/04/18 04:35:32;;;;;;;16.25;11.95;;;4.00;99.90;;;;;;5042716;28;20037;-90
2022/04/18 04:37:58;;;;;;;18.42;13.43;;;4.00;99.90;;;;;;5031552;28;20120;-89
2022/04/18 04:40:23;;;;;;;18.63;12.60;;;4.00;99.90;;;;;;5025990;28;20036;-89
2022/04/18 04:42:49;;;;;;;17.10;12.88;;;4.10;99.90;;;;;;5031271;28;20106;-89
2022/04/18 04:45:15;;;;;;;17.83;13.07;;;4.10;99.90;;;;;;5045249;28;20059;-88
2022/04/18 04:47:43;;;;;;;16.15;12.10;;;4.20;99.90;;;;;;5036251;28;20042;-89
2022/04/18 04:50:09;;;;;;;17.23;12.27;;;4.20;99.90;;;;;;5043680;28;20040;-90
2022/04/18 04:52:35;;;;;;;18.05;12.60;;;4.30;99.90;;;;;;5042025;28;20125;-89
2022/04/18 04:55:00;;;;;;;14.55;12.15;;;4.40;99.90;;;;;;5026908;28;20483;-88
2022/04/18 04:57:26;;;;;;;16.60;12.43;;;4.50;99.90;;;;;;5032755;28;20044;-88
2022/04/18 04:59:52;;;;;;;16.45;13.13;;;4.50;99.90;;;;;;5023366;28;20033;-89
2022/04/18 05:02:18;;;;;;;15.73;12.02;;;4.60;99.90;;;;;;5035244;28;20083;-89
2022/04/18 05:04:43;;;;;;;16.17;12.43;;;4.70;99.90;;;;;;5028387;28;20036;-89
2022/04/18 05:07:09;;;;;;;17.77;12.10;;;4.80;99.90;;;;;;5044131;28;20039;-88
2022/04/18 05:09:35;;;;;;;16.13;11.43;;;4.90;99.90;;;;;;5026504;28;20179;-88
2022/04/18 05:12:00;;;;;;;19.25;12.57;;;5.00;99.90;;;;;;5022798;28;20578;-90
2022/04/18 05:14:26;;;;;;;16.17;11.90;;;5.10;99.90;;;;;;5029108;28;20071;-89
2022/04/18 05:16:52;;;;;;;20.08;12.68;;;5.20;99.90;;;;;;5029450;28;20507;-89
2022/04/18 05:19:17;;;;;;;16.13;12.07;;;5.30;99.90;;;;;;5044873;28;20041;-88
2022/04/18 05:21:43;;;;;;;16.20;11.68;;;5.40;99.90;;;;;;5026627;28;20207;-91
2022/04/18 05:24:09;;;;;;;16.42;11.45;;;5.40;99.90;;;;;;5026339;28;20187;-89
2022/04/18 05:26:35;;;;;;;17.17;12.15;;;5.60;99.90;;;;;;5027197;28;20392;-89
2022/04/18 05:29:00;;;;;;;18.20;12.30;;;5.70;99.90;;;;;;5023488;28;20502;-90
2022/04/18 05:31:26;;;;;;;15.95;11.98;;;5.80;99.90;;;;;;5029115;28;20118;-90
2022/04/18 05:33:52;;;;;;;16.55;11.75;;;5.80;99.90;;;;;;5031951;28;20060;-89
2022/04/18 05:36:21;;;;;;;16.58;12.20;;;5.90;99.90;;;;;;5039898;28;20125;-88
2022/04/18 05:38:47;;;;;;;17.08;11.70;;;6.10;99.90;;;;;;5020239;28;20060;-89
2022/04/18 05:41:12;;;;;;;16.60;12.52;;;6.10;99.90;;;;;;5045861;28;20149;-90
2022/04/18 05:43:38;;;;;;;15.18;10.80;;;6.20;99.90;;;;;;5025976;28;20746;-90
2022/04/18 05:46:04;;;;;;;17.60;12.05;;;6.40;99.90;;;;;;5025987;28;20056;-89
2022/04/18 05:48:29;;;;;;;13.73;11.32;;;6.50;99.90;;;;;;5043874;28;20388;-89
2022/04/18 05:50:55;;;;;;;16.70;11.63;;;6.60;99.90;;;;;;5033517;28;20052;-89
2022/04/18 05:53:27;;;;;;;13.88;10.65;;;6.70;99.90;;;;;;5025804;28;20390;-89
2022/04/18 05:55:53;;;;;;;14.77;11.30;;;6.90;99.90;;;;;;5024545;28;20533;-89
2022/04/18 05:58:19;;;;;;;14.63;10.82;;;7.00;99.90;;;;;;5043110;28;20048;-89
2022/04/18 06:00:44;;;;;;;17.10;11.00;;;7.20;99.90;;;;;;5046348;28;20032;-89
2022/04/18 06:03:11;;;;;;;15.80;11.07;;;7.30;99.90;;;;;;5031746;28;20094;-89
2022/04/18 06:05:37;;;;;;;14.77;10.68;;;7.40;99.90;;;;;;5029490;28;20044;-89
2022/04/18 06:08:03;;;;;;;13.10;9.88;;;7.50;99.90;;;;;;5022606;28;20040;-89
2022/04/18 06:10:29;;;;;;;15.20;10.48;;;7.70;99.90;;;;;;5028711;28;20035;-89
2022/04/18 06:12:55;;;;;;;16.63;10.57;;;7.80;99.90;;;;;;5020675;28;20056;-89
2022/04/18 06:15:21;;;;;;;12.68;10.02;;;7.90;99.90;;;;;;5051411;28;20041;-89
2022/04/18 06:17:47;;;;;;;12.60;9.73;;;7.90;99.90;;;;;;5024431;28;20412;-90
2022/04/18 06:20:12;;;;;;;13.32;9.88;;;8.10;99.90;;;;;;5033410;28;20059;-89
2022/04/18 06:22:38;;;;;;;14.48;9.60;;;8.20;99.90;;;;;;5027910;28;20134;-89
2022/04/18 06:25:04;;;;;;;12.85;10.38;;;8.30;99.90;;;;;;5044312;28;20029;-89
2022/04/18 06:27:30;;;;;;;13.93;10.00;;;8.40;99.90;;;;;;5046536;28;20051;-90
2022/04/18 06:29:56;;;;;;;12.88;10.30;;;8.50;99.90;;;;;;5049179;28;20697;-89
2022/04/18 06:32:24;;;;;;;15.25;10.18;;;8.60;99.90;;;;;;5046542;28;20071;-89
2022/04/18 06:34:50;;;;;;;13.73;9.93;;;8.60;99.90;;;;;;5037626;28;20041;-89
2022/04/18 06:37:16;;;;;;;12.77;10.15;;;8.70;99.90;;;;;;5031371;28;20044;-90
2022/04/18 06:39:43;;;;;;;13.48;10.05;;;8.90;99.90;;;;;;5030837;28;20391;-87
2022/04/18 06:42:09;;;;;;;13.23;10.23;;;8.90;99.90;;;;;;5021941;28;20029;-90
2022/04/18 06:44:35;;;;;;;15.52;10.27;;;9.00;99.90;;;;;;5031210;28;20049;-89
2022/04/18 06:47:01;;;;;;;13.23;10.48;;;9.10;99.90;;;;;;5027849;28;20032;-89
2022/04/18 06:49:29;;;;;;;12.52;10.13;;;9.20;99.90;;;;;;5035186;28;20488;-90
2022/04/18 06:51:55;;;;;;;13.63;10.60;;;9.20;99.90;;;;;;5020319;28;20045;-90
2022/04/18 06:54:20;;;;;;;13.65;10.60;;;9.30;99.90;;;;;;5047417;28;20044;-91
2022/04/18 06:57:01;;;;;;;17.05;11.32;;;9.40;99.90;;;;;;5046399;28;20035;-90
2022/04/18 06:59:28;;;;;;;17.02;10.38;;;9.50;99.90;;;;;;5055831;28;20059;-91
2022/04/18 07:01:55;;;;;;;16.17;10.88;;;9.60;99.90;;;;;;5033654;28;20037;-89
2022/04/18 07:04:21;;;;;;;13.55;10.20;;;9.70;99.90;;;;;;5027944;28;20080;-90
2022/04/18 07:06:50;;;;;;;14.15;10.05;;;9.80;99.90;;;;;;5027301;28;20079;-90
2022/04/18 07:09:20;;;;;;;14.38;10.52;;;9.90;99.90;;;;;;5032309;28;20579;-90
2022/04/18 07:11:46;;;;;;;14.05;10.52;;;10.10;99.90;;;;;;5021898;28;20056;-91
2022/04/18 07:14:16;;;;;;;15.18;9.88;;;10.20;99.90;;;;;;5031135;28;20049;-89
2022/04/18 07:16:42;;;;;;;13.93;9.95;;;10.30;99.90;;;;;;5046041;28;20404;-89
2022/04/18 07:19:08;;;;;;;12.40;8.93;;;10.40;99.90;;;;;;5032253;28;20043;-90
2022/04/18 07:21:34;;;;;;;14.15;9.63;;;10.50;99.90;;;;;;5033231;28;20684;-89
2022/04/18 07:24:00;;;;;;;13.30;9.48;;;10.60;99.90;;;;;;5024256;28;20052;-90
2022/04/18 07:26:26;;;;;;;11.40;8.85;;;10.70;99.90;;;;;;5024670;28;20365;-89
2022/04/18 07:28:53;;;;;;;14.77;9.45;;;10.70;99.90;;;;;;5061861;28;20047;-90
2022/04/18 07:31:21;;;;;;;12.45;8.52;;;10.90;99.90;;;;;;5046394;28;20051;-90
2022/04/18 07:33:47;;;;;;;12.98;9.63;;;11.00;99.90;;;;;;5026065;28;20048;-90
2022/04/18 07:36:13;;;;;;;13.40;9.18;;;11.10;99.90;;;;;;5034523;28;20051;-90
2022/04/18 07:38:50;;;;;;;12.25;8.50;;;11.30;99.90;;;;;;5026512;28;20047;-90
2022/04/18 07:41:18;;;;;;;10.30;8.75;;;11.40;99.90;;;;;;5033712;28;20044;-90
2022/04/18 07:43:44;;;;;;;13.20;8.82;;;11.50;99.90;;;;;;5028938;28;20051;-89
2022/04/18 07:46:10;;;;;;;12.60;8.57;;;11.70;99.90;;;;;;5026738;28;20040;-91
2022/04/18 07:48:36;;;;;;;10.88;8.63;;;11.80;99.90;;;;;;5039045;28;20036;-89
2022/04/18 07:53:46;;;;;;;11.38;8.98;;;11.90;99.90;;;;;;5042239;28;20128;-90
2022/04/18 07:56:12;;;;;;;10.68;8.10;;;12.00;99.90;;;;;;5028246;28;20127;-90
2022/04/18 07:58:38;;;;;;;11.15;8.25;;;12.10;99.90;;;;;;5037697;28;20048;-89
2022/04/18 08:01:03;;;;;;;12.20;8.63;;;12.20;99.90;;;;;;5029988;28;20101;-89
2022/04/18 08:03:33;;;;;;;12.05;8.38;;;12.30;99.90;;;;;;5028374;28;20469;-89
2022/04/18 08:06:03;;;;;;;12.88;8.25;;;12.40;99.90;;;;;;5024131;28;20048;-91
2022/04/18 08:08:29;;;;;;;9.88;7.80;;;12.40;99.90;;;;;;5029603;28;20132;-90
2022/04/18 08:10:56;;;;;;;9.90;8.13;;;12.50;99.90;;;;;;5029935;28;20123;-90
2022/04/18 08:13:22;;;;;;;12.23;8.63;;;12.70;99.90;;;;;;5045030;28;20127;-89
2022/04/18 08:15:47;;;;;;;10.15;7.90;;;12.80;99.90;;;;;;5053976;28;20053;-89
2022/04/18 08:18:13;;;;;;;10.38;7.97;;;13.00;99.90;;;;;;5035432;28;20368;-90
2022/04/18 08:20:41;;;;;;;10.13;8.02;;;13.20;99.90;;;;;;5026521;28;20037;-90
2022/04/18 08:23:07;;;;;;;11.43;8.07;;;13.10;99.90;;;;;;5034046;28;20058;-89
2022/04/18 08:25:33;;;;;;;10.80;8.07;;;13.20;99.90;;;;;;5027894;28;20119;-91
2022/04/18 08:27:59;;;;;;;10.60;7.80;;;13.30;99.90;;;;;;5040409;28;20072;-89
2022/04/18 08:30:24;;;;;;;11.25;7.30;;;13.60;99.90;;;;;;5027970;28;20056;-89
2022/04/18 08:32:50;;;;;;;14.57;8.85;;;13.60;99.90;;;;;;5030444;28;20050;-90
2022/04/18 08:35:16;;;;;;;15.70;10.40;;;13.60;99.90;;;;;;5026486;28;20036;-90
2022/04/18 08:37:42;;;;;;;13.93;9.07;;;13.80;99.90;;;;;;5023004;28;20037;-89
2022/04/18 08:40:10;;;;;;;11.57;8.43;;;13.90;99.90;;;;;;5028611;28;20032;-91
2022/04/18 08:42:40;;;;;;;14.90;10.27;;;14.00;99.90;;;;;;5029835;28;20036;-90
2022/04/18 08:45:11;;;;;;;15.80;9.68;;;14.20;99.90;;;;;;5037946;28;20120;-89
2022/04/18 08:53:14;;;;;;;15.50;9.60;;;14.40;99.90;;;;;;5044182;28;20453;-90
2022/04/18 08:55:41;;;;;;;10.73;8.00;;;14.70;99.90;;;;;;5045416;28;20139;-91
2022/04/18 08:58:07;;;;;;;11.75;8.13;;;14.80;99.90;;;;;;5021335;28;20680;-90
2022/04/18 09:00:33;;;;;;;13.45;7.90;;;14.90;99.90;;;;;;5030415;28;20044;-91
2022/04/18 09:02:59;;;;;;;8.82;7.10;;;15.00;99.90;;;;;;5043138;28;20040;-90
2022/04/18 09:05:25;;;;;;;12.85;7.78;;;15.10;99.90;;;;;;5029563;28;20059;-90
2022/04/18 09:08:00;;;;;;;10.65;7.82;;;14.90;99.90;;;;;;5026006;28;20043;-91
2022/04/18 09:10:27;;;;;;;9.68;7.05;;;15.20;99.90;;;;;;5029869;28;20037;-91
2022/04/18 09:12:54;;;;;;;8.15;6.80;;;15.50;99.90;;;;;;5029678;28;20044;-90
2022/04/18 09:15:50;;;;;;;10.07;7.47;;;15.60;99.90;;;;;;5028589;28;20040;-90
2022/04/18 09:18:21;;;;;;;9.40;6.72;;;15.70;99.90;;;;;;5022111;28;20045;-91
2022/04/18 09:20:55;;;;;;;11.05;7.75;;;15.90;99.90;;;;;;5039473;28;20037;-91
2022/04/18 09:23:29;;;;;;;9.27;6.67;;;16.10;99.90;;;;;;5021046;28;20059;-91
2022/04/18 09:26:09;;;;;;;7.57;6.70;;;16.10;99.90;;;;;;5043491;28;20036;-91
2022/04/18 09:28:37;;;;;;;8.00;6.70;;;16.30;99.90;;;;;;5032629;28;20034;-90
2022/04/18 09:31:12;;;;;;;10.48;6.50;;;16.40;99.90;;;;;;5028698;28;20094;-90
2022/04/18 09:33:37;;;;;;;8.43;7.20;;;16.50;99.90;;;;;;5027515;28;20049;-90
2022/04/18 09:36:25;;;;;;;8.25;6.47;;;16.50;99.90;;;;;;5028386;28;20041;-92
2022/04/18 09:38:56;;;;;;;9.82;6.50;;;16.60;99.90;;;;;;5020408;28;20036;-91
2022/04/18 09:41:24;;;;;;;7.18;6.15;;;16.60;99.90;;;;;;5027363;28;20043;-91
2022/04/18 09:43:52;;;;;;;8.00;6.72;;;16.80;99.90;;;;;;5035690;28;20052;-91
2022/04/18 09:46:19;;;;;;;8.23;6.53;;;17.00;99.90;;;;;;5026484;28;20131;-91
2022/04/18 09:48:46;;;;;;;7.80;6.00;;;16.90;99.90;;;;;;5026725;28;20051;-91
2022/04/18 09:51:14;;;;;;;9.75;6.47;;;17.20;99.90;;;;;;5032771;28;20037;-90
2022/04/18 09:53:45;;;;;;;7.85;6.55;;;17.40;99.90;;;;;;5028412;28;20037;-91
2022/04/18 09:56:19;;;;;;;8.60;6.07;;;17.50;99.90;;;;;;5026841;28;20503;-91
2022/04/18 09:58:45;;;;;;;7.13;5.25;;;17.50;99.90;;;;;;5034936;28;20541;-90
2022/04/18 10:01:14;;;;;;;9.30;6.18;;;17.40;99.90;;;;;;5031704;28;20094;-91
2022/04/18 10:03:41;;;;;;;8.05;5.78;;;17.50;99.90;;;;;;5022920;28;20045;-91
2022/04/18 10:06:08;;;;;;;8.70;5.78;;;17.90;99.90;;;;;;5026071;28;20560;-91
2022/04/18 10:08:35;;;;;;;8.18;6.10;;;17.90;99.90;;;;;;5043291;28;20043;-90
2022/04/18 10:11:02;;;;;;;8.88;5.95;;;17.80;99.90;;;;;;5031778;28;20166;-91
2022/04/18 10:13:30;;;;;;;7.43;5.35;;;17.90;99.90;;;;;;5034279;28;20063;-90
2022/04/18 10:15:58;;;;;;;7.03;5.10;;;17.90;99.90;;;;;;5033682;28;20147;-90
2022/04/18 10:18:24;;;;;;;7.20;5.50;;;18.10;99.90;;;;;;5036993;28;20097;-90
2022/04/18 10:21:26;;;;;;;8.05;5.43;;;18.20;99.90;;;;;;5031538;28;20041;-91
2022/04/18 10:24:12;;;;;;;7.05;5.45;;;18.30;99.90;;;;;;5058051;28;20079;-91
2022/04/18 10:27:02;;;;;;;7.45;5.20;;;18.50;99.90;;;;;;4990463;28;20053;-91
2022/04/18 10:29:54;;;;;;;8.57;4.97;;;18.20;99.90;;;;;;5025095;28;20041;-90
2022/04/18 10:32:24;;;;;;;8.13;4.60;;;18.60;99.90;;;;;;5027816;28;20071;-91
2022/04/18 10:34:58;;;;;;;6.93;4.38;;;18.90;99.90;;;;;;5029596;28;20037;-93
2022/04/18 10:37:25;;;;;;;5.43;3.83;;;18.80;99.90;;;;;;5038604;28;20139;-91
2022/04/18 10:40:05;;;;;;;5.25;4.20;;;18.80;99.90;;;;;;5027371;28;20150;-90
2022/04/18 10:42:37;;;;;;;4.93;4.35;;;18.90;99.90;;;;;;5046527;28;20033;-91
2022/04/18 10:45:08;;;;;;;5.13;3.83;;;19.10;99.90;;;;;;5030407;28;20038;-90
2022/04/18 10:47:55;;;;;;;4.35;3.45;;;19.30;99.90;;;;;;5024193;28;20045;-91
2022/04/18 10:50:22;;;;;;;3.50;3.20;;;19.40;99.90;;;;;;5031446;28;20387;-91
2022/04/18 10:53:14;;;;;;;5.70;3.63;;;19.20;99.90;;;;;;5027001;28;20084;-92
2022/04/18 10:56:01;;;;;;;5.20;4.10;;;19.40;99.90;;;;;;5028876;28;20087;-91
2022/04/18 10:58:32;;;;;;;5.32;4.07;;;19.60;99.90;;;;;;5038909;28;20035;-90
2022/04/18 11:01:05;;;;;;;3.90;3.50;;;19.50;99.90;;;;;;5030471;28;20176;-91
2022/04/18 11:03:39;;;;;;;5.95;3.50;;;19.70;99.90;;;;;;5030906;28;20044;-91
2022/04/18 11:06:17;;;;;;;5.68;3.70;;;19.90;99.90;;;;;;5031520;28;20070;-91
2022/04/18 11:09:00;;;;;;;4.50;3.90;;;20.00;99.90;;;;;;5026824;28;20048;-91
2022/04/18 11:11:42;;;;;;;3.45;3.05;;;20.10;99.90;;;;;;5030159;28;20568;-90
2022/04/18 11:14:15;;;;;;;4.90;3.15;;;20.20;99.90;;;;;;5021532;28;20045;-91
2022/04/18 11:16:44;;;;;;;6.07;3.33;;;20.10;99.90;;;;;;5035374;28;20052;-89
2022/04/18 11:19:18;;;;;;;4.95;3.20;;;19.90;99.90;;;;;;5022813;28;20264;-90
2022/04/18 11:22:04;;;;;;;4.97;3.10;;;20.30;99.90;;;;;;5019731;28;20278;-90
2022/04/18 11:25:09;;;;;;;5.25;3.60;;;20.50;99.90;;;;;;5029174;28;20044;-90
2022/04/18 11:27:39;;;;;;;6.65;3.83;;;20.70;99.90;;;;;;4989107;28;20060;-91
2022/04/18 11:30:12;;;;;;;5.82;3.90;;;20.50;99.90;;;;;;5034503;28;20124;-90
2022/04/18 11:32:45;;;;;;;6.65;3.58;;;20.70;99.90;;;;;;5014554;28;20119;-91
2022/04/18 11:35:11;;;;;;;5.60;3.65;;;21.00;99.90;;;;;;5026762;28;20048;-90
2022/04/18 11:37:43;;;;;;;5.82;4.25;;;20.80;99.90;;;;;;5026184;28;20237;-91
2022/04/18 11:40:16;;;;;;;5.93;4.25;;;20.80;99.90;;;;;;5027502;28;20568;-90
2022/04/18 11:42:43;;;;;;;5.78;4.18;;;20.60;99.90;;;;;;5037984;28;20037;-90
2022/04/18 11:45:29;;;;;;;5.20;4.00;;;20.60;99.90;;;;;;5029621;28;20080;-90
2022/04/18 11:47:54;;;;;;;6.80;4.10;;;21.00;99.90;;;;;;5052376;28;20040;-90
2022/04/18 11:50:23;;;;;;;7.20;4.70;;;21.30;99.90;;;;;;5030769;28;20042;-91
2022/04/18 11:53:06;;;;;;;5.35;4.20;;;20.90;99.90;;;;;;5028973;28;20044;-90
2022/04/18 11:55:44;;;;;;;4.90;4.05;;;21.00;99.90;;;;;;5031029;28;20498;-90
2022/04/18 11:58:11;;;;;;;4.85;3.95;;;20.70;99.90;;;;;;5027514;28;20036;-91
2022/04/18 12:08:50;;;;;;;6.43;4.15;;;21.50;99.90;;;;;;5041843;28;20063;-90
2022/04/18 12:11:16;;;;;;;4.68;4.10;;;21.20;99.90;;;;;;5028760;28;20041;-91
2022/04/18 12:13:47;;;;;;;6.18;4.13;;;21.40;99.90;;;;;;5038461;28;20065;-90
2022/04/18 12:16:17;;;;;;;4.20;3.58;;;21.80;99.90;;;;;;5025835;28;20110;-90
2022/04/18 12:18:43;;;;;;;4.80;3.65;;;21.80;99.90;;;;;;5029382;28;20127;-89
2022/04/18 12:21:14;;;;;;;5.18;3.72;;;22.30;99.90;;;;;;5019891;28;20029;-93
2022/04/18 12:23:40;;;;;;;5.25;4.13;;;22.30;99.90;;;;;;5058312;28;20044;-94
2022/04/18 12:26:13;;;;;;;4.95;4.13;;;22.30;99.90;;;;;;5038607;28;20124;-92
2022/04/18 12:28:42;;;;;;;5.95;4.20;;;22.20;99.90;;;;;;5027006;28;20054;-91
2022/04/18 12:31:12;;;;;;;5.47;4.38;;;22.00;99.90;;;;;;5045646;28;20044;-91
2022/04/18 12:33:49;;;;;;;4.35;3.78;;;22.20;99.90;;;;;;5028570;28;20044;-91
2022/04/18 12:36:33;;;;;;;5.38;4.05;;;22.70;99.90;;;;;;5030742;28;20037;-92
2022/04/18 12:39:00;;;;;;;4.47;3.80;;;22.30;99.90;;;;;;5027673;28;20072;-93
2022/04/18 12:41:32;;;;;;;5.35;3.95;;;22.40;99.90;;;;;;5026431;28;20029;-91
2022/04/18 12:43:59;;;;;;;6.22;3.67;;;22.30;99.90;;;;;;5029948;28;20105;-91
2022/04/18 12:46:33;;;;;;;4.65;4.00;;;22.60;99.90;;;;;;5030554;28;20356;-91
2022/04/18 12:49:05;;;;;;;6.05;3.85;;;22.10;99.90;;;;;;5032334;28;20040;-88
2022/04/18 12:51:33;;;;;;;5.28;4.22;;;22.30;99.90;;;;;;5033017;28;20082;-91
2022/04/18 12:54:02;;;;;;;4.75;3.80;;;22.50;99.90;;;;;;5029171;28;20159;-91
2022/04/18 12:56:29;;;;;;;4.38;3.83;;;22.40;99.90;;;;;;5039395;28;20059;-90
2022/04/18 12:58:54;;;;;;;4.88;3.95;;;22.10;99.90;;;;;;5031538;28;20269;-90
2022/04/18 13:01:25;;;;;;;4.68;3.78;;;22.10;99.90;;;;;;5033817;28;20567;-92
2022/04/18 13:03:52;;;;;;;4.43;3.13;;;22.20;99.90;;;;;;5033055;28;20040;-91
2022/04/18 13:06:36;;;;;;;4.88;3.42;;;22.30;99.90;;;;;;5033101;28;20701;-87
2022/04/18 13:09:07;;;;;;;6.30;3.85;;;22.30;99.90;;;;;;5043453;28;20032;-93
2022/04/18 13:11:40;;;;;;;4.85;3.80;;;22.50;99.90;;;;;;5027435;28;20203;-91